出雲空港の過去48時間の天気

出雲空港 (Izumo)

現在時刻: 1/22 03:17 JST (1/21 18:17 UTC) 以下の時間は現地時間です。

過去48時間のMETAR気象情報
時間 風向 風速(m/s) 視程 気温(℃) 湿度(%) 気圧(hPa) 天気現象
21 20:00 南南東 2 10km以上 4 75 1021
21 19:00 南南東 2 10km以上 5 75 1022
21 18:00 不定 1 10km以上 7 53 1022
21 17:00 北西 4 10km以上 7 57 1021
21 16:00 北北西 6 10km以上 8 49 1021
21 15:00 北西 6 10km以上 9 46 1021
21 14:00 北西 6 10km以上 9 50 1020
21 13:00 北西 8 10km以上 9 50 1020
21 12:00 北西 6 10km以上 9 50 1021
21 11:00 西南西 3 10km以上 8 71 1022
21 10:00 2 7,000m 6 81 1021
21 09:00 北西 1 10km以上 3 93 1021
21 08:00 不定 1 10km以上 2 93 1020
21 07:00 不定 1 10km以上 2 93 1020 弱いしゅう雨
21 06:30 不定 1 10km以上 1 93 1020 弱いしゅう雨
21 06:10 不定 1 10km以上 1 93 1020
20 20:00 3 10km以上 3 87 1020
20 19:00 南南東 3 10km以上 5 81 1020
20 18:00 南南東 3 10km以上 6 70 1020
20 17:00 不定 1 10km以上 9 53 1019
20 16:00 不定 1 10km以上 9 46 1019
20 15:00 北東 2 10km以上 9 46 1019
20 14:00 2 10km以上 9 50 1019
20 13:00 不定 1 10km以上 9 62 1019
20 12:00 東北東 2 10km以上 7 76 1020 弱いしゅう雨
20 11:00 不定 1 10km以上 8 61 1020 弱いしゅう雨
20 10:00 南南東 2 10km以上 6 76 1020
20 09:00 不定 1 10km以上 5 81 1019
20 08:00 5 10km以上 3 87 1019
20 07:00 5 10km以上 3 87 1019
20 06:30 南南東 4 10km以上 4 81 1019
20 06:10 南南東 4 10km以上 4 81 1018
RJOC 211100Z 15003KT 9999 FEW035 BKN/// 04/00 Q1021
RJOC 211000Z 15004KT 9999 SCT035 BKN045 05/01 Q1022
RJOC 210900Z VRB01KT 9999 FEW030 BKN035 07/M02 Q1022
RJOC 210800Z 31007KT 9999 FEW040 SCT050 BKN/// 07/M01 Q1021
RJOC 210700Z 33011KT 9999 SCT040 08/M02 Q1021
RJOC 210600Z 31012KT 9999 FEW035 SCT040 09/M02 Q1021
RJOC 210500Z 31012KT 9999 FEW035 SCT040 09/M01 Q1020
RJOC 210400Z 31015KT 9999 FEW030 SCT035 09/M01 Q1020
RJOC 210300Z 32012KT 9999 FEW030 SCT035 09/M01 Q1021
RJOC 210200Z 25006KT 9999 FEW030 SCT035 BKN045 08/03 Q1022
RJOC 210100Z 18004KT 7000 FEW030 SCT035 BKN045 06/03 Q1021
RJOC 210000Z 32002KT 9999 FEW030 SCT040 BKN050 03/02 Q1021
RJOC 202300Z VRB02KT 9999 FEW030 SCT035 BKN045 02/01 Q1020
RJOC 202200Z VRB02KT 9999 -SHRA FEW030 BKN035 BKN040 02/01 Q1020
RJOC 202130Z VRB02KT 9999 -SHRA FEW030 SCT035 BKN050 01/00 Q1020
RJOC 202110Z VRB01KT 9999 FEW030 BKN060 BKN/// 01/00 Q1020 RMK 1CU030 5SC060 A3012
RJOC 201100Z 19006KT 9999 FEW030 03/01 Q1020
RJOC 201000Z 16006KT 9999 FEW030 05/02 Q1020
RJOC 200900Z 16006KT 9999 FEW030 06/01 Q1020
RJOC 200800Z VRB01KT 9999 FEW040 09/00 Q1019
RJOC 200700Z VRB02KT 9999 FEW030 SCT040 BKN050 09/M02 Q1019
RJOC 200600Z 05004KT 9999 FEW030 SCT040 BKN050 09/M02 Q1019
RJOC 200500Z 10003KT 9999 FEW030 SCT040 BKN050 09/M01 Q1019
RJOC 200400Z VRB01KT 9999 FEW030 SCT040 BKN050 09/02 Q1019
RJOC 200300Z 06003KT 350V120 9999 -SHRA FEW025 SCT030 BKN040 07/03 Q1020
RJOC 200200Z VRB01KT 9999 -SHRA FEW025 SCT030 BKN035 08/01 Q1020
RJOC 200100Z 15004KT 9999 FEW030 BKN040 06/02 Q1020
RJOC 200000Z VRB02KT 9999 FEW030 SCT040 05/02 Q1019
RJOC 192300Z 17009KT 9999 FEW030 03/01 Q1019
RJOC 192200Z 17009KT 9999 FEW003 03/01 Q1019
RJOC 192130Z 16008KT 9999 FEW040 04/01 Q1019
RJOC 192110Z 16008KT 9999 FEW040 04/01 Q1018 RMK 1CU040 A3008